sensor_id;sensor_type;location;lat;lon;timestamp;pressure;altitude;pressure_sealevel;temperature
69415;BMP280;56608;43.530;-5.652;2023-02-28T00:00:03;102269.06;;;7.24
69415;BMP280;56608;43.530;-5.652;2023-02-28T00:01:14;102277.22;;;7.38
69415;BMP280;56608;43.530;-5.652;2023-02-28T00:02:16;102278.44;;;7.48
69415;BMP280;56608;43.530;-5.652;2023-02-28T00:03:18;102277.66;;;7.44
69415;BMP280;56608;43.530;-5.652;2023-02-28T00:04:20;102283.78;;;7.48
69415;BMP280;56608;43.530;-5.652;2023-02-28T00:05:23;102294.13;;;7.49
69415;BMP280;56608;43.530;-5.652;2023-02-28T00:06:25;102281.59;;;7.57
69415;BMP280;56608;43.530;-5.652;2023-02-28T00:07:26;102293.94;;;7.72
69415;BMP280;56608;43.530;-5.652;2023-02-28T00:08:28;102275.97;;;7.73
69415;BMP280;56608;43.530;-5.652;2023-02-28T00:09:30;102294.81;;;7.83
69415;BMP280;56608;43.530;-5.652;2023-02-28T00:10:31;102287.16;;;7.82
69415;BMP280;56608;43.530;-5.652;2023-02-28T00:11:33;102279.88;;;7.82
69415;BMP280;56608;43.530;-5.652;2023-02-28T00:12:35;102283.38;;;7.90
69415;BMP280;56608;43.530;-5.652;2023-02-28T00:13:40;102285.69;;;7.95
69415;BMP280;56608;43.530;-5.652;2023-02-28T00:14:41;102265.41;;;7.91
69415;BMP280;56608;43.530;-5.652;2023-02-28T00:15:43;102273.06;;;7.89
69415;BMP280;56608;43.530;-5.652;2023-02-28T00:16:45;102285.34;;;7.97
69415;BMP280;56608;43.530;-5.652;2023-02-28T00:17:46;102279.97;;;7.97
69415;BMP280;56608;43.530;-5.652;2023-02-28T00:18:48;102274.19;;;7.91
69415;BMP280;56608;43.530;-5.652;2023-02-28T00:19:50;102274.22;;;7.95
69415;BMP280;56608;43.530;-5.652;2023-02-28T00:20:52;102276.50;;;7.93
69415;BMP280;56608;43.530;-5.652;2023-02-28T00:21:52;102272.66;;;7.86
69415;BMP280;56608;43.530;-5.652;2023-02-28T00:22:55;102277.28;;;7.93
69415;BMP280;56608;43.530;-5.652;2023-02-28T00:23:56;102271.53;;;7.87
69415;BMP280;56608;43.530;-5.652;2023-02-28T00:24:57;102267.56;;;7.67
69415;BMP280;56608;43.530;-5.652;2023-02-28T00:25:59;102276.31;;;7.68
69415;BMP280;56608;43.530;-5.652;2023-02-28T00:27:00;102271.19;;;7.48
69415;BMP280;56608;43.530;-5.652;2023-02-28T00:28:02;102264.22;;;7.37
69415;BMP280;56608;43.530;-5.652;2023-02-28T00:29:02;102269.97;;;7.39
69415;BMP280;56608;43.530;-5.652;2023-02-28T00:30:06;102275.03;;;7.51
69415;BMP280;56608;43.530;-5.652;2023-02-28T00:31:09;102270.81;;;7.50
69415;BMP280;56608;43.530;-5.652;2023-02-28T00:32:10;102281.06;;;7.41
69415;BMP280;56608;43.530;-5.652;2023-02-28T00:33:11;102278.41;;;7.41
69415;BMP280;56608;43.530;-5.652;2023-02-28T00:34:13;102274.50;;;7.31
69415;BMP280;56608;43.530;-5.652;2023-02-28T00:35:14;102277.59;;;7.37
69415;BMP280;56608;43.530;-5.652;2023-02-28T00:36:16;102276.03;;;7.32
69415;BMP280;56608;43.530;-5.652;2023-02-28T00:37:17;102275.53;;;7.20
69415;BMP280;56608;43.530;-5.652;2023-02-28T00:38:19;102277.84;;;7.25
69415;BMP280;56608;43.530;-5.652;2023-02-28T00:39:20;102270.56;;;7.22
69415;BMP280;56608;43.530;-5.652;2023-02-28T00:40:22;102280.50;;;7.25
69415;BMP280;56608;43.530;-5.652;2023-02-28T00:41:22;102275.56;;;7.27
69415;BMP280;56608;43.530;-5.652;2023-02-28T00:42:24;102273.66;;;7.27
69415;BMP280;56608;43.530;-5.652;2023-02-28T00:43:25;102280.16;;;7.26
69415;BMP280;56608;43.530;-5.652;2023-02-28T00:44:27;102266.31;;;7.17
69415;BMP280;56608;43.530;-5.652;2023-02-28T00:45:29;102265.88;;;7.11
69415;BMP280;56608;43.530;-5.652;2023-02-28T00:46:29;102282.72;;;7.15
69415;BMP280;56608;43.530;-5.652;2023-02-28T00:47:31;102277.37;;;7.15
69415;BMP280;56608;43.530;-5.652;2023-02-28T00:48:32;102279.19;;;7.04
69415;BMP280;56608;43.530;-5.652;2023-02-28T00:49:34;102292.16;;;7.02
69415;BMP280;56608;43.530;-5.652;2023-02-28T00:50:35;102285.31;;;7.05
69415;BMP280;56608;43.530;-5.652;2023-02-28T00:51:36;102279.34;;;7.18
69415;BMP280;56608;43.530;-5.652;2023-02-28T00:52:37;102276.16;;;7.09
69415;BMP280;56608;43.530;-5.652;2023-02-28T00:53:39;102275.03;;;7.10
69415;BMP280;56608;43.530;-5.652;2023-02-28T00:54:40;102273.53;;;7.13
69415;BMP280;56608;43.530;-5.652;2023-02-28T00:55:41;102268.62;;;7.18
69415;BMP280;56608;43.530;-5.652;2023-02-28T00:56:43;102265.94;;;7.15
69415;BMP280;56608;43.530;-5.652;2023-02-28T00:57:43;102265.97;;;7.18
69415;BMP280;56608;43.530;-5.652;2023-02-28T00:58:45;102271.34;;;7.26
69415;BMP280;56608;43.530;-5.652;2023-02-28T00:59:46;102262.94;;;7.24
69415;BMP280;56608;43.530;-5.652;2023-02-28T01:00:48;102274.50;;;7.35
69415;BMP280;56608;43.530;-5.652;2023-02-28T01:01:49;102276.78;;;7.33
69415;BMP280;56608;43.530;-5.652;2023-02-28T01:02:51;102277.97;;;7.35
69415;BMP280;56608;43.530;-5.652;2023-02-28T01:03:52;102269.47;;;7.26
69415;BMP280;56608;43.530;-5.652;2023-02-28T01:04:53;102265.16;;;7.14
69415;BMP280;56608;43.530;-5.652;2023-02-28T01:05:55;102267.50;;;7.23
69415;BMP280;56608;43.530;-5.652;2023-02-28T01:06:56;102275.28;;;7.32
69415;BMP280;56608;43.530;-5.652;2023-02-28T01:07:57;102272.97;;;7.34
69415;BMP280;56608;43.530;-5.652;2023-02-28T01:08:59;102258.84;;;7.30
69415;BMP280;56608;43.530;-5.652;2023-02-28T01:10:01;102269.97;;;7.39
69415;BMP280;56608;43.530;-5.652;2023-02-28T01:11:10;102266.09;;;7.33
69415;BMP280;56608;43.530;-5.652;2023-02-28T01:12:12;102266.91;;;7.37
69415;BMP280;56608;43.530;-5.652;2023-02-28T01:13:14;102260.06;;;7.39
69415;BMP280;56608;43.530;-5.652;2023-02-28T01:14:17;102271.50;;;7.40
69415;BMP280;56608;43.530;-5.652;2023-02-28T01:15:18;102268.00;;;7.29
69415;BMP280;56608;43.530;-5.652;2023-02-28T01:16:20;102261.44;;;7.26
69415;BMP280;56608;43.530;-5.652;2023-02-28T01:17:21;102262.28;;;7.30
69415;BMP280;56608;43.530;-5.652;2023-02-28T01:18:22;102253.75;;;7.21
69415;BMP280;56608;43.530;-5.652;2023-02-28T01:19:24;102260.66;;;7.26
69415;BMP280;56608;43.530;-5.652;2023-02-28T01:20:25;102260.75;;;7.29
69415;BMP280;56608;43.530;-5.652;2023-02-28T01:21:26;102251.44;;;7.16
69415;BMP280;56608;43.530;-5.652;2023-02-28T01:22:28;102266.00;;;7.26
69415;BMP280;56608;43.530;-5.652;2023-02-28T01:23:29;102253.00;;;7.24
69415;BMP280;56608;43.530;-5.652;2023-02-28T01:24:30;102257.69;;;7.31
69415;BMP280;56608;43.530;-5.652;2023-02-28T01:25:35;102263.03;;;7.31
69415;BMP280;56608;43.530;-5.652;2023-02-28T01:26:36;102268.38;;;7.31
69415;BMP280;56608;43.530;-5.652;2023-02-28T01:27:37;102260.66;;;7.26
69415;BMP280;56608;43.530;-5.652;2023-02-28T01:28:40;102259.53;;;7.27
69415;BMP280;56608;43.530;-5.652;2023-02-28T01:29:42;102256.81;;;7.23
69415;BMP280;56608;43.530;-5.652;2023-02-28T01:30:47;102259.97;;;7.29
69415;BMP280;56608;43.530;-5.652;2023-02-28T01:31:49;102254.50;;;7.22
69415;BMP280;56608;43.530;-5.652;2023-02-28T01:32:50;102256.81;;;7.20
69415;BMP280;56608;43.530;-5.652;2023-02-28T01:33:54;102266.75;;;7.23
69415;BMP280;56608;43.530;-5.652;2023-02-28T01:34:55;102273.50;;;7.09
69415;BMP280;56608;43.530;-5.652;2023-02-28T01:36:00;102263.16;;;7.04
69415;BMP280;56608;43.530;-5.652;2023-02-28T01:37:01;102268.91;;;7.10
69415;BMP280;56608;43.530;-5.652;2023-02-28T01:38:04;102264.34;;;7.10
69415;BMP280;56608;43.530;-5.652;2023-02-28T01:39:05;102264.34;;;7.07
69415;BMP280;56608;43.530;-5.652;2023-02-28T01:40:07;102270.81;;;7.09
69415;BMP280;56608;43.530;-5.652;2023-02-28T01:41:15;102269.78;;;7.17
69415;BMP280;56608;43.530;-5.652;2023-02-28T01:42:16;102270.50;;;7.14
69415;BMP280;56608;43.530;-5.652;2023-02-28T01:45:31;102266.66;;;7.12
69415;BMP280;56608;43.530;-5.652;2023-02-28T01:46:13;102272.75;;;7.09
69415;BMP280;56608;43.530;-5.652;2023-02-28T01:47:15;102271.22;;;7.11
69415;BMP280;56608;43.530;-5.652;2023-02-28T01:48:17;102272.78;;;7.12
69415;BMP280;56608;43.530;-5.652;2023-02-28T01:49:19;102266.66;;;7.08
69415;BMP280;56608;43.530;-5.652;2023-02-28T01:50:23;102265.06;;;7.04
69415;BMP280;56608;43.530;-5.652;2023-02-28T01:51:35;102273.13;;;7.07
69415;BMP280;56608;43.530;-5.652;2023-02-28T01:52:39;102273.84;;;7.04
69415;BMP280;56608;43.530;-5.652;2023-02-28T01:53:50;102268.13;;;7.06
69415;BMP280;56608;43.530;-5.652;2023-02-28T01:54:55;102272.00;;;7.08
69415;BMP280;56608;43.530;-5.652;2023-02-28T01:55:56;102268.91;;;7.06
69415;BMP280;56608;43.530;-5.652;2023-02-28T01:57:16;102267.78;;;7.07
69415;BMP280;56608;43.530;-5.652;2023-02-28T01:58:18;102267.37;;;7.05
69415;BMP280;56608;43.530;-5.652;2023-02-28T01:59:28;102265.75;;;7.01
69415;BMP280;56608;43.530;-5.652;2023-02-28T02:00:31;102256.59;;;7.02
69415;BMP280;56608;43.530;-5.652;2023-02-28T02:01:33;102272.72;;;7.05
69415;BMP280;56608;43.530;-5.652;2023-02-28T02:02:33;102270.09;;;7.09
69415;BMP280;56608;43.530;-5.652;2023-02-28T02:03:35;102272.38;;;7.10
69415;BMP280;56608;43.530;-5.652;2023-02-28T02:04:39;102276.63;;;7.15
69415;BMP280;56608;43.530;-5.652;2023-02-28T02:05:45;102275.84;;;7.14
69415;BMP280;56608;43.530;-5.652;2023-02-28T02:06:50;102275.44;;;7.12
69415;BMP280;56608;43.530;-5.652;2023-02-28T02:07:52;102276.16;;;7.09
69415;BMP280;56608;43.530;-5.652;2023-02-28T02:08:55;102278.06;;;7.05
69415;BMP280;56608;43.530;-5.652;2023-02-28T02:11:18;102269.63;;;7.03
69415;BMP280;56608;43.530;-5.652;2023-02-28T02:12:32;102274.91;;;7.00
69415;BMP280;56608;43.530;-5.652;2023-02-28T02:14:11;102271.53;;;7.03
69415;BMP280;56608;43.530;-5.652;2023-02-28T02:15:22;102270.03;;;7.05
69415;BMP280;56608;43.530;-5.652;2023-02-28T02:16:42;102263.84;;;7.01
69415;BMP280;56608;43.530;-5.652;2023-02-28T02:17:48;102268.91;;;7.06
69415;BMP280;56608;43.530;-5.652;2023-02-28T02:18:57;102270.34;;;7.00
69415;BMP280;56608;43.530;-5.652;2023-02-28T02:25:52;102269.31;;;7.08
69415;BMP280;56608;43.530;-5.652;2023-02-28T02:27:09;102270.81;;;7.06
69415;BMP280;56608;43.530;-5.652;2023-02-28T02:29:06;102268.56;;;7.11
69415;BMP280;56608;43.530;-5.652;2023-02-28T02:30:00;102271.22;;;7.08
69415;BMP280;56608;43.530;-5.652;2023-02-28T02:36:38;102272.22;;;6.96
69415;BMP280;56608;43.530;-5.652;2023-02-28T02:39:48;102273.87;;;7.08
69415;BMP280;56608;43.530;-5.652;2023-02-28T02:42:11;102275.81;;;7.11
69415;BMP280;56608;43.530;-5.652;2023-02-28T02:43:36;102272.34;;;7.07
69415;BMP280;56608;43.530;-5.652;2023-02-28T02:44:43;102273.13;;;7.11
69415;BMP280;56608;43.530;-5.652;2023-02-28T02:45:47;102271.59;;;7.10
69415;BMP280;56608;43.530;-5.652;2023-02-28T02:46:53;102270.78;;;7.02
69415;BMP280;56608;43.530;-5.652;2023-02-28T02:47:57;102267.25;;;6.98
69415;BMP280;56608;43.530;-5.652;2023-02-28T02:49:03;102273.78;;;7.01
69415;BMP280;56608;43.530;-5.652;2023-02-28T02:50:10;102266.91;;;7.00
69415;BMP280;56608;43.530;-5.652;2023-02-28T02:51:15;102275.03;;;7.10
69415;BMP280;56608;43.530;-5.652;2023-02-28T02:52:20;102273.50;;;7.09
69415;BMP280;56608;43.530;-5.652;2023-02-28T02:53:33;102261.53;;;6.96
69415;BMP280;56608;43.530;-5.652;2023-02-28T02:54:41;102266.84;;;6.93
69415;BMP280;56608;43.530;-5.652;2023-02-28T02:55:47;102266.44;;;6.91
69415;BMP280;56608;43.530;-5.652;2023-02-28T02:56:56;102266.78;;;6.89
69415;BMP280;56608;43.530;-5.652;2023-02-28T02:58:03;102261.44;;;6.89
69415;BMP280;56608;43.530;-5.652;2023-02-28T02:59:08;102270.69;;;6.95
69415;BMP280;56608;43.530;-5.652;2023-02-28T03:00:12;102270.28;;;6.93
69415;BMP280;56608;43.530;-5.652;2023-02-28T03:01:18;102255.78;;;6.94
69415;BMP280;56608;43.530;-5.652;2023-02-28T03:02:29;102264.28;;;7.03
69415;BMP280;56608;43.530;-5.652;2023-02-28T03:03:35;102275.03;;;7.10
69415;BMP280;56608;43.530;-5.652;2023-02-28T03:04:42;102262.84;;;7.13
69415;BMP280;56608;43.530;-5.652;2023-02-28T03:05:47;102271.28;;;7.15
69415;BMP280;56608;43.530;-5.652;2023-02-28T03:06:51;102259.75;;;7.07
69415;BMP280;56608;43.530;-5.652;2023-02-28T03:07:55;102264.75;;;7.09
69415;BMP280;56608;43.530;-5.652;2023-02-28T03:08:56;102272.00;;;7.08
69415;BMP280;56608;43.530;-5.652;2023-02-28T03:09:58;102257.31;;;6.95
69415;BMP280;56608;43.530;-5.652;2023-02-28T03:11:02;102257.69;;;6.97
69415;BMP280;56608;43.530;-5.652;2023-02-28T03:12:07;102267.37;;;7.05
69415;BMP280;56608;43.530;-5.652;2023-02-28T03:15:16;102261.13;;;6.98
69415;BMP280;56608;43.530;-5.652;2023-02-28T03:16:30;102261.19;;;7.01
69415;BMP280;56608;43.530;-5.652;2023-02-28T03:17:58;102264.22;;;7.00
69415;BMP280;56608;43.530;-5.652;2023-02-28T03:23:13;102258.47;;;6.94
69415;BMP280;56608;43.530;-5.652;2023-02-28T03:24:21;102256.97;;;7.00
69415;BMP280;56608;43.530;-5.652;2023-02-28T03:26:31;102255.44;;;6.96
69415;BMP280;56608;43.530;-5.652;2023-02-28T03:27:47;102264.88;;;6.90
69415;BMP280;56608;43.530;-5.652;2023-02-28T03:29:17;102262.66;;;6.95
69415;BMP280;56608;43.530;-5.652;2023-02-28T03:30:47;102256.56;;;6.98
69415;BMP280;56608;43.530;-5.652;2023-02-28T03:32:10;102260.34;;;6.94
69415;BMP280;56608;43.530;-5.652;2023-02-28T03:33:25;102264.13;;;6.89
69415;BMP280;56608;43.530;-5.652;2023-02-28T03:35:36;102255.06;;;7.01
69415;BMP280;56608;43.530;-5.652;2023-02-28T03:36:43;102261.63;;;7.03
69415;BMP280;56608;43.530;-5.652;2023-02-28T03:37:48;102266.12;;;6.96
69415;BMP280;56608;43.530;-5.652;2023-02-28T03:38:56;102257.28;;;6.92
69415;BMP280;56608;43.530;-5.652;2023-02-28T03:40:01;102267.25;;;6.95
69415;BMP280;56608;43.530;-5.652;2023-02-28T03:41:12;102271.41;;;6.92
69415;BMP280;56608;43.530;-5.652;2023-02-28T03:42:19;102259.12;;;6.84
69415;BMP280;56608;43.530;-5.652;2023-02-28T03:43:27;102270.66;;;6.92
69415;BMP280;56608;43.530;-5.652;2023-02-28T03:44:35;102266.12;;;6.96
69415;BMP280;56608;43.530;-5.652;2023-02-28T03:45:41;102273.78;;;7.01
69415;BMP280;56608;43.530;-5.652;2023-02-28T03:46:52;102276.12;;;7.02
69415;BMP280;56608;43.530;-5.652;2023-02-28T03:49:06;102280.97;;;6.93
69415;BMP280;56608;43.530;-5.652;2023-02-28T03:50:11;102280.19;;;6.93
69415;BMP280;56608;43.530;-5.652;2023-02-28T03:51:19;102270.94;;;6.83
69415;BMP280;56608;43.530;-5.652;2023-02-28T03:52:27;102271.38;;;6.89
69415;BMP280;56608;43.530;-5.652;2023-02-28T03:53:33;102270.28;;;6.93
69415;BMP280;56608;43.530;-5.652;2023-02-28T03:54:41;102275.62;;;6.93
69415;BMP280;56608;43.530;-5.652;2023-02-28T03:55:55;102275.69;;;7.00
69415;BMP280;56608;43.530;-5.652;2023-02-28T03:57:12;102272.72;;;7.05
69415;BMP280;56608;43.530;-5.652;2023-02-28T03:59:51;102283.22;;;6.91
69415;BMP280;56608;43.530;-5.652;2023-02-28T04:01:21;102279.84;;;6.94
69415;BMP280;56608;43.530;-5.652;2023-02-28T04:02:24;102270.69;;;6.95
69415;BMP280;56608;43.530;-5.652;2023-02-28T04:03:26;102280.25;;;6.96
69415;BMP280;56608;43.530;-5.652;2023-02-28T04:04:28;102275.97;;;6.92
69415;BMP280;56608;43.530;-5.652;2023-02-28T04:05:30;102276.75;;;6.92
69415;BMP280;56608;43.530;-5.652;2023-02-28T04:06:32;102265.72;;;6.97
69415;BMP280;56608;43.530;-5.652;2023-02-28T04:07:34;102271.81;;;6.94
69415;BMP280;56608;43.530;-5.652;2023-02-28T04:08:36;102268.34;;;6.90
69415;BMP280;56608;43.530;-5.652;2023-02-28T04:09:37;102279.06;;;6.94
69415;BMP280;56608;43.530;-5.652;2023-02-28T04:10:38;102280.59;;;6.95
69415;BMP280;56608;43.530;-5.652;2023-02-28T04:11:42;102277.06;;;6.87
69415;BMP280;56608;43.530;-5.652;2023-02-28T04:12:43;102268.75;;;6.92
69415;BMP280;56608;43.530;-5.652;2023-02-28T04:13:45;102266.88;;;6.96
69415;BMP280;56608;43.530;-5.652;2023-02-28T04:14:46;102269.91;;;6.95
69415;BMP280;56608;43.530;-5.652;2023-02-28T04:15:47;102272.22;;;6.96
69415;BMP280;56608;43.530;-5.652;2023-02-28T04:16:49;102274.09;;;6.92
69415;BMP280;56608;43.530;-5.652;2023-02-28T04:17:52;102276.34;;;6.90
69415;BMP280;56608;43.530;-5.652;2023-02-28T04:18:53;102277.87;;;6.91
69415;BMP280;56608;43.530;-5.652;2023-02-28T04:19:54;102277.19;;;6.98
69415;BMP280;56608;43.530;-5.652;2023-02-28T04:21:00;102269.56;;;6.96
69415;BMP280;56608;43.530;-5.652;2023-02-28T04:22:01;102277.16;;;6.94
69415;BMP280;56608;43.530;-5.652;2023-02-28T04:23:03;102271.81;;;6.94
69415;BMP280;56608;43.530;-5.652;2023-02-28T04:24:05;102281.37;;;6.95
69415;BMP280;56608;43.530;-5.652;2023-02-28T04:25:07;102281.37;;;6.95
69415;BMP280;56608;43.530;-5.652;2023-02-28T04:26:07;102279.84;;;6.98
69415;BMP280;56608;43.530;-5.652;2023-02-28T04:27:09;102273.31;;;6.92
69415;BMP280;56608;43.530;-5.652;2023-02-28T04:28:11;102285.13;;;6.91
69415;BMP280;56608;43.530;-5.652;2023-02-28T04:29:14;102281.28;;;6.88
69415;BMP280;56608;43.530;-5.652;2023-02-28T04:30:16;102282.41;;;6.87
69415;BMP280;56608;43.530;-5.652;2023-02-28T04:31:16;102285.19;;;6.94
69415;BMP280;56608;43.530;-5.652;2023-02-28T04:32:18;102274.81;;;6.89
69415;BMP280;56608;43.530;-5.652;2023-02-28T04:33:19;102284.03;;;6.95
69415;BMP280;56608;43.530;-5.652;2023-02-28T04:34:20;102278.28;;;6.93
69415;BMP280;56608;43.530;-5.652;2023-02-28T04:35:22;102285.59;;;6.96
69415;BMP280;56608;43.530;-5.652;2023-02-28T04:36:23;102277.87;;;6.91
69415;BMP280;56608;43.530;-5.652;2023-02-28T04:37:24;102279.47;;;6.96
69415;BMP280;56608;43.530;-5.652;2023-02-28T04:38:32;102295.88;;;6.98
69415;BMP280;56608;43.530;-5.652;2023-02-28T04:39:36;102281.34;;;6.92
69415;BMP280;56608;43.530;-5.652;2023-02-28T04:40:37;102285.50;;;6.89
69415;BMP280;56608;43.530;-5.652;2023-02-28T04:41:38;102294.34;;;6.97
69415;BMP280;56608;43.530;-5.652;2023-02-28T04:42:39;102282.41;;;6.87
69415;BMP280;56608;43.530;-5.652;2023-02-28T04:43:41;102286.25;;;6.90
69415;BMP280;56608;43.530;-5.652;2023-02-28T04:44:42;102285.50;;;6.89
69415;BMP280;56608;43.530;-5.652;2023-02-28T04:45:44;102287.84;;;6.94
69415;BMP280;56608;43.530;-5.652;2023-02-28T04:46:47;102279.06;;;6.97
69415;BMP280;56608;43.530;-5.652;2023-02-28T04:47:49;102284.81;;;6.99
69415;BMP280;56608;43.530;-5.652;2023-02-28T04:48:50;102289.12;;;7.04
69415;BMP280;56608;43.530;-5.652;2023-02-28T04:49:51;102296.75;;;7.05
69415;BMP280;56608;43.530;-5.652;2023-02-28T04:50:53;102285.59;;;6.96
69415;BMP280;56608;43.530;-5.652;2023-02-28T04:51:54;102292.38;;;6.90
69415;BMP280;56608;43.530;-5.652;2023-02-28T04:52:56;102290.06;;;6.89
69415;BMP280;56608;43.530;-5.652;2023-02-28T04:53:58;102296.94;;;6.90
69415;BMP280;56608;43.530;-5.652;2023-02-28T04:54:59;102292.00;;;6.92
69415;BMP280;56608;43.530;-5.652;2023-02-28T04:56:01;102291.59;;;6.90
69415;BMP280;56608;43.530;-5.652;2023-02-28T04:57:01;102301.97;;;6.95
69415;BMP280;56608;43.530;-5.652;2023-02-28T04:58:03;102285.44;;;6.82
69415;BMP280;56608;43.530;-5.652;2023-02-28T04:59:05;102295.41;;;6.89
69415;BMP280;56608;43.530;-5.652;2023-02-28T05:00:06;102300.00;;;6.88
69415;BMP280;56608;43.530;-5.652;2023-02-28T05:01:41;102304.91;;;6.86
69415;BMP280;56608;43.530;-5.652;2023-02-28T05:02:46;102301.47;;;6.86
69415;BMP280;56608;43.530;-5.652;2023-02-28T05:03:48;102306.12;;;6.92
69415;BMP280;56608;43.530;-5.652;2023-02-28T05:04:49;102310.00;;;6.95
69415;BMP280;56608;43.530;-5.652;2023-02-28T05:05:51;102316.84;;;6.92
69415;BMP280;56608;43.530;-5.652;2023-02-28T05:06:52;102310.72;;;6.92
69415;BMP280;56608;43.530;-5.652;2023-02-28T05:07:54;102310.72;;;6.92
69415;BMP280;56608;43.530;-5.652;2023-02-28T05:08:57;102314.56;;;6.94
69415;BMP280;56608;43.530;-5.652;2023-02-28T05:09:58;102301.94;;;6.91
69415;BMP280;56608;43.530;-5.652;2023-02-28T05:11:00;102299.66;;;6.93
69415;BMP280;56608;43.530;-5.652;2023-02-28T05:12:02;102300.81;;;6.92
69415;BMP280;56608;43.530;-5.652;2023-02-28T05:13:04;102307.69;;;6.97
69415;BMP280;56608;43.530;-5.652;2023-02-28T05:14:09;102300.44;;;6.94
69415;BMP280;56608;43.530;-5.652;2023-02-28T05:15:14;102313.81;;;6.97
69415;BMP280;56608;43.530;-5.652;2023-02-28T05:16:16;102312.31;;;7.00
69415;BMP280;56608;43.530;-5.652;2023-02-28T05:17:18;102319.91;;;6.94
69415;BMP280;56608;43.530;-5.652;2023-02-28T05:18:18;102322.59;;;6.94
69415;BMP280;56608;43.530;-5.652;2023-02-28T05:19:20;102319.16;;;6.94
69415;BMP280;56608;43.530;-5.652;2023-02-28T05:20:21;102321.03;;;6.93
69415;BMP280;56608;43.530;-5.652;2023-02-28T05:21:31;102318.31;;;6.90
69415;BMP280;56608;43.530;-5.652;2023-02-28T05:22:32;102315.22;;;6.84
69415;BMP280;56608;43.530;-5.652;2023-02-28T05:23:34;102320.59;;;6.88
69415;BMP280;56608;43.530;-5.652;2023-02-28T05:24:35;102315.22;;;6.84
69415;BMP280;56608;43.530;-5.652;2023-02-28T05:25:36;102318.28;;;6.86
69415;BMP280;56608;43.530;-5.652;2023-02-28T05:26:40;102309.88;;;6.84
69415;BMP280;56608;43.530;-5.652;2023-02-28T05:27:42;102324.38;;;6.83
69415;BMP280;56608;43.530;-5.652;2023-02-28T05:28:43;102323.19;;;6.80
69415;BMP280;56608;43.530;-5.652;2023-02-28T05:29:44;102322.78;;;6.78
69415;BMP280;56608;43.530;-5.652;2023-02-28T05:30:46;102330.38;;;6.76
69415;BMP280;56608;43.530;-5.652;2023-02-28T05:31:46;102325.88;;;6.80
69415;BMP280;56608;43.530;-5.652;2023-02-28T05:32:51;102324.69;;;6.78
69415;BMP280;56608;43.530;-5.652;2023-02-28T05:33:52;102321.25;;;6.77
69415;BMP280;56608;43.530;-5.652;2023-02-28T05:34:54;102323.56;;;6.79
69415;BMP280;56608;43.530;-5.652;2023-02-28T05:35:56;102337.31;;;6.81
69415;BMP280;56608;43.530;-5.652;2023-02-28T05:36:57;102329.72;;;6.83
69415;BMP280;56608;43.530;-5.652;2023-02-28T05:37:58;102319.03;;;6.83
69415;BMP280;56608;43.530;-5.652;2023-02-28T05:39:00;102333.19;;;6.87
69415;BMP280;56608;43.530;-5.652;2023-02-28T05:40:02;102334.72;;;6.88
69415;BMP280;56608;43.530;-5.652;2023-02-28T05:41:08;102334.72;;;6.88
69415;BMP280;56608;43.530;-5.652;2023-02-28T05:42:10;102325.13;;;6.83
69415;BMP280;56608;43.530;-5.652;2023-02-28T05:43:11;102335.81;;;6.83
69415;BMP280;56608;43.530;-5.652;2023-02-28T05:44:13;102329.72;;;6.83
69415;BMP280;56608;43.530;-5.652;2023-02-28T05:45:13;102334.31;;;6.86
69415;BMP280;56608;43.530;-5.652;2023-02-28T05:46:15;102340.47;;;6.90
69415;BMP280;56608;43.530;-5.652;2023-02-28T05:47:17;102333.59;;;6.89
69415;BMP280;56608;43.530;-5.652;2023-02-28T05:48:17;102322.84;;;6.82
69415;BMP280;56608;43.530;-5.652;2023-02-28T05:49:19;102329.59;;;6.76
69415;BMP280;56608;43.530;-5.652;2023-02-28T05:50:20;102330.84;;;6.82
69415;BMP280;56608;43.530;-5.652;2023-02-28T05:51:22;102333.19;;;6.87
69415;BMP280;56608;43.530;-5.652;2023-02-28T05:52:23;102336.62;;;6.88
69415;BMP280;56608;43.530;-5.652;2023-02-28T05:53:25;102334.34;;;6.90
69415;BMP280;56608;43.530;-5.652;2023-02-28T05:54:27;102338.09;;;6.85
69415;BMP280;56608;43.530;-5.652;2023-02-28T05:55:28;102345.81;;;6.90
69415;BMP280;56608;43.530;-5.652;2023-02-28T05:56:30;102347.31;;;6.88
69415;BMP280;56608;43.530;-5.652;2023-02-28T05:57:31;102353.72;;;6.79
69415;BMP280;56608;43.530;-5.652;2023-02-28T05:58:32;102346.06;;;6.78
69415;BMP280;56608;43.530;-5.652;2023-02-28T05:59:35;102351.84;;;6.83
69415;BMP280;56608;43.530;-5.652;2023-02-28T06:00:40;102340.62;;;6.74
69415;BMP280;56608;43.530;-5.652;2023-02-28T06:01:43;102345.34;;;6.81
69415;BMP280;56608;43.530;-5.652;2023-02-28T06:02:51;102339.22;;;6.80
69415;BMP280;56608;43.530;-5.652;2023-02-28T06:04:01;102334.66;;;6.81
69415;BMP280;56608;43.530;-5.652;2023-02-28T06:05:02;102340.88;;;6.92
69415;BMP280;56608;43.530;-5.652;2023-02-28T06:06:04;102338.97;;;6.93
69415;BMP280;56608;43.530;-5.652;2023-02-28T06:07:06;102343.53;;;6.92
69415;BMP280;56608;43.530;-5.652;2023-02-28T06:08:08;102344.31;;;6.93
69415;BMP280;56608;43.530;-5.652;2023-02-28T06:09:09;102330.50;;;6.87
69415;BMP280;56608;43.530;-5.652;2023-02-28T06:10:11;102343.88;;;6.87
69415;BMP280;56608;43.530;-5.652;2023-02-28T06:11:13;102332.78;;;6.85
69415;BMP280;56608;43.530;-5.652;2023-02-28T06:12:14;102345.75;;;6.83
69415;BMP280;56608;43.530;-5.652;2023-02-28T06:13:15;102342.31;;;6.86
69415;BMP280;56608;43.530;-5.652;2023-02-28T06:14:18;102345.81;;;6.90
69415;BMP280;56608;43.530;-5.652;2023-02-28T06:15:20;102339.66;;;6.86
69415;BMP280;56608;43.530;-5.652;2023-02-28T06:16:22;102334.28;;;6.82
69415;BMP280;56608;43.530;-5.652;2023-02-28T06:17:24;102343.88;;;6.87
69415;BMP280;56608;43.530;-5.652;2023-02-28T06:18:24;102341.97;;;6.88
69415;BMP280;56608;43.530;-5.652;2023-02-28T06:19:26;102342.31;;;6.86
69415;BMP280;56608;43.530;-5.652;2023-02-28T06:20:28;102349.63;;;6.89
69415;BMP280;56608;43.530;-5.652;2023-02-28T06:21:30;102342.31;;;6.86
69415;BMP280;56608;43.530;-5.652;2023-02-28T06:22:32;102341.00;;;6.73
69415;BMP280;56608;43.530;-5.652;2023-02-28T06:23:33;102352.53;;;6.77
69415;BMP280;56608;43.530;-5.652;2023-02-28T06:24:35;102343.06;;;6.83
69415;BMP280;56608;43.530;-5.652;2023-02-28T06:25:36;102354.97;;;6.89
69415;BMP280;56608;43.530;-5.652;2023-02-28T06:26:37;102351.16;;;6.90
69415;BMP280;56608;43.530;-5.652;2023-02-28T06:27:39;102351.47;;;6.85
69415;BMP280;56608;43.530;-5.652;2023-02-28T06:28:40;102354.06;;;6.78
69415;BMP280;56608;43.530;-5.652;2023-02-28T06:29:42;102353.34;;;6.81
69415;BMP280;56608;43.530;-5.652;2023-02-28T06:30:43;102342.66;;;6.81
69415;BMP280;56608;43.530;-5.652;2023-02-28T06:31:45;102353.75;;;6.83